createdAt,value
2023-02-11T00:01:28.885Z,26.90
2023-02-11T00:03:58.278Z,25.80
2023-02-11T00:06:28.154Z,19.97
2023-02-11T00:08:56.793Z,19.37
2023-02-11T00:11:30.277Z,15.20
2023-02-11T00:13:59.736Z,14.90
2023-02-11T00:16:28.227Z,13.27
2023-02-11T00:18:56.245Z,13.33
2023-02-11T00:21:25.940Z,12.67
2023-02-11T00:23:55.042Z,13.17
2023-02-11T00:26:30.226Z,13.00
2023-02-11T00:28:58.159Z,14.40
2023-02-11T00:31:26.740Z,14.00
2023-02-11T00:33:55.570Z,13.70
2023-02-11T00:36:29.098Z,12.47
2023-02-11T00:38:58.416Z,13.13
2023-02-11T00:41:26.461Z,12.83
2023-02-11T00:43:54.033Z,14.87
2023-02-11T00:46:22.742Z,12.57
2023-02-11T00:48:51.951Z,12.80
2023-02-11T00:51:22.036Z,12.50
2023-02-11T00:53:49.542Z,13.37
2023-02-11T00:56:17.605Z,11.57
2023-02-11T00:58:45.097Z,12.50
2023-02-11T01:01:16.059Z,13.23
2023-02-11T01:03:43.851Z,13.57
2023-02-11T01:06:11.967Z,13.43
2023-02-11T01:08:40.484Z,14.30
2023-02-11T01:11:16.413Z,13.03
2023-02-11T01:13:46.761Z,13.90
2023-02-11T01:16:15.419Z,13.73
2023-02-11T01:18:44.494Z,17.00
2023-02-11T01:21:12.462Z,16.13
2023-02-11T01:23:40.011Z,17.90
2023-02-11T01:26:07.539Z,17.87
2023-02-11T01:28:35.180Z,18.13
2023-02-11T01:31:04.301Z,16.67
2023-02-11T01:33:36.210Z,17.07
2023-02-11T01:36:06.134Z,16.63
2023-02-11T01:38:34.793Z,16.73
2023-02-11T01:41:07.405Z,16.70
2023-02-11T01:43:42.919Z,17.40
2023-02-11T01:46:36.913Z,19.00
2023-02-11T01:49:19.214Z,18.33
2023-02-11T01:51:56.459Z,17.20
2023-02-11T01:54:47.469Z,18.57
2023-02-11T01:57:27.633Z,18.90
2023-02-11T02:00:27.172Z,18.20
2023-02-11T02:03:05.375Z,18.47
2023-02-11T02:06:08.303Z,20.13
2023-02-11T02:08:50.569Z,20.07
2023-02-11T02:11:18.215Z,19.90
2023-02-11T02:13:45.855Z,19.50
2023-02-11T02:16:17.618Z,25.23
2023-02-11T02:19:12.459Z,28.17
2023-02-11T02:22:14.120Z,35.17
2023-02-11T02:24:56.585Z,33.07
2023-02-11T02:27:47.471Z,30.20
2023-02-11T02:30:32.943Z,31.40
2023-02-11T02:33:37.857Z,30.97
2023-02-11T02:36:34.879Z,27.70
2023-02-11T02:39:14.911Z,24.43
2023-02-11T02:41:43.973Z,21.93
2023-02-11T02:44:11.545Z,22.17
2023-02-11T02:46:39.179Z,20.63
2023-02-11T02:49:13.586Z,20.33
2023-02-11T02:52:04.536Z,19.83
2023-02-11T02:55:35.977Z,20.03
2023-02-11T02:58:36.060Z,22.17
2023-02-11T03:01:14.173Z,22.13
2023-02-11T03:04:21.013Z,29.73
2023-02-11T03:07:03.332Z,28.20
2023-02-11T03:10:06.590Z,28.80
2023-02-11T03:12:36.598Z,27.47
2023-02-11T03:15:07.898Z,28.77
2023-02-11T03:17:39.711Z,26.03
2023-02-11T03:20:11.507Z,25.07
2023-02-11T03:23:04.591Z,25.93
2023-02-11T03:25:39.537Z,25.00
2023-02-11T03:28:35.522Z,25.90
2023-02-11T03:31:10.591Z,24.83
2023-02-11T03:33:51.921Z,26.20
2023-02-11T03:36:48.292Z,24.83
2023-02-11T03:39:23.044Z,25.57
2023-02-11T03:41:52.252Z,25.20
2023-02-11T03:44:22.264Z,24.90
2023-02-11T03:46:52.066Z,24.47
2023-02-11T03:49:22.663Z,25.80
2023-02-11T03:51:53.880Z,25.93
2023-02-11T03:54:29.588Z,25.53
2023-02-11T03:57:01.213Z,25.37
2023-02-11T03:59:29.658Z,25.03
2023-02-11T04:01:59.564Z,27.30
2023-02-11T04:04:27.212Z,26.13
2023-02-11T04:06:54.697Z,27.03
2023-02-11T04:09:22.170Z,28.10
2023-02-11T04:11:49.579Z,29.23
2023-02-11T04:14:17.081Z,30.10
2023-02-11T04:16:44.553Z,30.03
2023-02-11T04:19:12.096Z,38.73
2023-02-11T04:21:39.543Z,38.13
2023-02-11T04:24:07.054Z,39.63
2023-02-11T04:26:34.464Z,50.63
2023-02-11T04:29:01.882Z,50.07
2023-02-11T04:31:29.516Z,46.50
2023-02-11T04:33:57.649Z,47.57
2023-02-11T04:36:25.115Z,49.60
2023-02-11T04:38:52.488Z,44.80
2023-02-11T04:41:20.058Z,45.13
2023-02-11T04:43:47.612Z,46.13
2023-02-11T04:46:15.134Z,44.90
2023-02-11T04:48:42.699Z,49.77
2023-02-11T04:51:10.315Z,48.10
2023-02-11T04:53:37.886Z,48.50
2023-02-11T04:56:05.711Z,52.67
2023-02-11T04:58:33.191Z,35.83
2023-02-11T05:01:12.875Z,31.20
2023-02-11T05:03:40.591Z,33.90
2023-02-11T05:06:09.499Z,33.77
2023-02-11T05:08:37.218Z,34.87
2023-02-11T05:11:05.150Z,37.57
2023-02-11T05:13:33.141Z,37.17
2023-02-11T05:16:00.617Z,38.17
2023-02-11T05:18:28.071Z,40.90
2023-02-11T05:20:55.651Z,40.37
2023-02-11T05:23:26.106Z,39.07
2023-02-11T05:25:53.570Z,37.07
2023-02-11T05:28:21.148Z,36.80
2023-02-11T05:30:48.655Z,36.80
2023-02-11T05:33:16.104Z,34.93
2023-02-11T05:35:44.254Z,38.47
2023-02-11T05:38:11.812Z,32.67
2023-02-11T05:40:39.550Z,33.93
2023-02-11T05:43:07.002Z,31.10
2023-02-11T05:45:34.786Z,28.57
2023-02-11T05:48:02.265Z,41.70
2023-02-11T05:50:29.782Z,34.47
2023-02-11T05:52:57.237Z,24.00
2023-02-11T05:55:24.913Z,15.40
2023-02-11T05:57:52.381Z,19.90
2023-02-11T06:00:20.146Z,17.77
2023-02-11T06:02:47.643Z,15.93
2023-02-11T06:05:15.206Z,17.73
2023-02-11T06:07:42.635Z,19.37
2023-02-11T06:10:11.052Z,29.93
2023-02-11T06:12:39.665Z,30.63
2023-02-11T06:15:08.788Z,21.67
2023-02-11T06:17:37.454Z,22.23
2023-02-11T06:20:08.668Z,19.97
2023-02-11T06:22:36.121Z,23.93
2023-02-11T06:25:04.336Z,22.53
2023-02-11T06:27:31.977Z,19.47
2023-02-11T06:29:59.503Z,18.13
2023-02-11T06:32:45.648Z,16.93
2023-02-11T06:35:15.194Z,18.97
2023-02-11T06:37:43.198Z,22.27
2023-02-11T06:40:12.305Z,20.83
2023-02-11T06:42:39.941Z,15.90
2023-02-11T06:45:10.962Z,28.90
2023-02-11T06:47:39.820Z,32.27
2023-02-11T06:50:12.805Z,17.00
2023-02-11T06:52:41.940Z,18.33
2023-02-11T06:55:10.932Z,21.33
2023-02-11T06:57:38.434Z,18.73
2023-02-11T07:00:07.058Z,25.03
2023-02-11T07:02:34.965Z,23.70
2023-02-11T07:05:02.565Z,30.90
2023-02-11T07:07:34.073Z,26.80
2023-02-11T07:10:05.933Z,21.30
2023-02-11T07:12:34.756Z,20.37
2023-02-11T07:15:06.602Z,25.13
2023-02-11T07:17:36.146Z,25.60
2023-02-11T07:20:04.781Z,24.00
2023-02-11T07:22:32.487Z,45.33
2023-02-11T07:25:00.518Z,24.70
2023-02-11T07:27:28.012Z,16.50
2023-02-11T07:29:55.515Z,21.23
2023-02-11T07:32:23.117Z,14.83
2023-02-11T07:34:50.599Z,15.67
2023-02-11T07:37:18.126Z,14.23
2023-02-11T07:39:45.898Z,15.33
2023-02-11T07:42:13.651Z,17.30
2023-02-11T07:44:41.302Z,13.97
2023-02-11T07:47:08.885Z,19.17
2023-02-11T07:49:36.391Z,14.40
2023-02-11T07:52:04.114Z,13.73
2023-02-11T07:54:34.180Z,15.67
2023-02-11T07:57:01.636Z,17.10
2023-02-11T07:59:31.134Z,16.47
2023-02-11T08:01:58.678Z,22.10
2023-02-11T08:04:26.232Z,20.93
2023-02-11T08:06:58.871Z,19.43
2023-02-11T08:09:26.558Z,30.97
2023-02-11T08:11:55.257Z,13.23
2023-02-11T08:14:27.274Z,14.60
2023-02-11T08:16:54.806Z,19.17
2023-02-11T08:19:22.335Z,22.23
2023-02-11T08:21:51.301Z,17.10
2023-02-11T08:24:18.788Z,17.93
2023-02-11T08:26:46.337Z,24.93
2023-02-11T08:29:16.252Z,18.67
2023-02-11T08:31:47.141Z,14.43
2023-02-11T08:34:19.045Z,13.70
2023-02-11T08:36:48.463Z,11.50
2023-02-11T08:39:22.819Z,12.77
2023-02-11T08:41:54.660Z,12.90
2023-02-11T08:44:23.855Z,11.03
2023-02-11T08:46:53.412Z,13.60
2023-02-11T08:49:24.752Z,11.57
2023-02-11T08:51:55.634Z,12.63
2023-02-11T08:54:23.152Z,12.73
2023-02-11T08:56:52.977Z,13.77
2023-02-11T08:59:21.779Z,13.17
2023-02-11T09:01:50.001Z,13.20
2023-02-11T09:04:17.850Z,11.43
2023-02-11T09:06:48.482Z,13.30
2023-02-11T09:09:17.134Z,10.17
2023-02-11T09:11:45.735Z,10.43
2023-02-11T09:14:22.244Z,14.50
2023-02-11T09:16:51.310Z,10.70
2023-02-11T09:19:19.611Z,9.77
2023-02-11T09:21:47.993Z,11.70
2023-02-11T09:24:15.840Z,9.87
2023-02-11T09:26:43.957Z,9.27
2023-02-11T09:29:11.912Z,8.97
2023-02-11T09:31:39.680Z,9.77
2023-02-11T09:34:07.666Z,10.47
2023-02-11T09:36:40.053Z,10.73
2023-02-11T09:39:16.931Z,9.93
2023-02-11T09:41:54.549Z,10.03
2023-02-11T09:44:27.957Z,13.10
2023-02-11T09:47:03.148Z,12.50
2023-02-11T09:49:45.674Z,10.87
2023-02-11T09:52:24.587Z,9.50
2023-02-11T09:55:02.243Z,10.73
2023-02-11T09:57:40.866Z,10.83
2023-02-11T10:01:01.113Z,10.27
2023-02-11T10:04:05.240Z,10.27
2023-02-11T10:06:57.317Z,9.80
2023-02-11T10:09:39.670Z,9.37
2023-02-11T10:12:53.806Z,8.80
2023-02-11T10:15:48.961Z,9.17
2023-02-11T10:18:42.515Z,9.13
2023-02-11T10:21:31.166Z,9.33
2023-02-11T10:24:03.729Z,9.07
2023-02-11T10:26:34.010Z,8.80
2023-02-11T10:29:21.467Z,8.80
2023-02-11T10:31:50.181Z,11.30
2023-02-11T10:34:18.188Z,9.47
2023-02-11T10:36:46.572Z,10.43
2023-02-11T10:39:22.042Z,10.50
2023-02-11T10:42:05.417Z,10.23
2023-02-11T10:44:58.373Z,9.53
2023-02-11T10:47:33.168Z,10.00
2023-02-11T10:50:03.554Z,10.70
2023-02-11T10:52:33.271Z,11.50
2023-02-11T10:55:13.837Z,11.97
2023-02-11T10:57:53.507Z,11.70
2023-02-11T11:00:38.872Z,9.70
2023-02-11T11:03:31.981Z,10.77
2023-02-11T11:06:03.216Z,9.70
2023-02-11T11:08:52.121Z,8.37
2023-02-11T11:11:25.491Z,10.37
2023-02-11T11:13:52.965Z,9.77
2023-02-11T11:16:33.102Z,10.87
2023-02-11T11:19:09.536Z,11.30
2023-02-11T11:21:54.423Z,10.03
2023-02-11T11:24:46.587Z,10.77
2023-02-11T11:27:23.682Z,9.83
2023-02-11T11:29:55.153Z,9.73
2023-02-11T11:32:34.269Z,10.13
2023-02-11T11:35:08.522Z,11.27
2023-02-11T11:37:37.866Z,10.37
2023-02-11T11:40:17.222Z,9.70
2023-02-11T11:42:45.079Z,9.00
2023-02-11T11:45:22.935Z,9.23
2023-02-11T11:48:13.609Z,8.03
2023-02-11T11:50:47.776Z,9.53
2023-02-11T11:53:41.472Z,11.20
2023-02-11T11:56:23.158Z,8.57
2023-02-11T11:58:51.674Z,8.43
2023-02-11T12:01:48.032Z,8.70
2023-02-11T12:04:43.121Z,7.93
2023-02-11T12:07:40.341Z,10.07
2023-02-11T12:10:36.717Z,9.43
2023-02-11T12:13:17.128Z,8.40
2023-02-11T12:16:00.443Z,8.30
2023-02-11T12:18:52.366Z,8.37
2023-02-11T12:21:32.640Z,8.13
2023-02-11T12:24:36.089Z,7.00
2023-02-11T12:28:15.803Z,7.73
2023-02-11T12:30:58.674Z,6.40
2023-02-11T12:34:16.435Z,6.30
2023-02-11T12:37:42.598Z,6.90
2023-02-11T12:40:54.484Z,8.27
2023-02-11T12:43:36.366Z,10.50
2023-02-11T12:46:31.360Z,11.20
2023-02-11T12:49:27.949Z,7.80
2023-02-11T12:52:21.385Z,10.67
2023-02-11T12:55:17.334Z,10.17
2023-02-11T12:57:47.278Z,8.33
2023-02-11T13:00:30.107Z,9.27
2023-02-11T13:03:11.500Z,10.03
2023-02-11T13:05:53.119Z,8.53
2023-02-11T13:08:41.494Z,8.37
2023-02-11T13:11:16.270Z,8.77
2023-02-11T13:13:49.214Z,9.27
2023-02-11T13:16:36.862Z,8.07
2023-02-11T13:19:13.674Z,8.20
2023-02-11T13:22:05.094Z,10.70
2023-02-11T13:24:59.830Z,7.30
2023-02-11T13:28:05.616Z,6.90
2023-02-11T13:30:36.938Z,7.10
2023-02-11T13:33:19.476Z,7.43
2023-02-11T13:36:10.152Z,6.70
2023-02-11T13:38:39.273Z,6.50
2023-02-11T13:41:30.870Z,7.80
2023-02-11T13:44:06.692Z,7.13
2023-02-11T13:46:59.355Z,6.53
2023-02-11T13:49:40.889Z,7.10
2023-02-11T13:52:39.759Z,7.17
2023-02-11T13:55:22.979Z,6.17
2023-02-11T13:58:08.791Z,6.53
2023-02-11T14:00:40.004Z,6.60
2023-02-11T14:03:31.973Z,6.50
2023-02-11T14:06:27.433Z,10.67
2023-02-11T14:09:22.136Z,7.53
2023-02-11T14:11:57.189Z,7.27
2023-02-11T14:14:36.304Z,6.93
2023-02-11T14:17:12.721Z,6.93
2023-02-11T14:19:50.805Z,7.33
2023-02-11T14:22:41.255Z,7.60
2023-02-11T14:25:22.186Z,6.97
2023-02-11T14:28:08.444Z,8.82
2023-02-11T14:31:14.907Z,6.90
2023-02-11T14:34:28.415Z,7.60
2023-02-11T14:37:09.522Z,7.80
2023-02-11T14:40:09.865Z,8.68
2023-02-11T14:42:39.107Z,7.90
2023-02-11T14:45:11.708Z,7.40
2023-02-11T14:48:06.867Z,7.32
2023-02-11T14:50:48.619Z,6.78
2023-02-11T14:53:23.116Z,7.70
2023-02-11T14:55:55.685Z,8.38
2023-02-11T14:58:32.932Z,7.57
2023-02-11T15:01:06.595Z,9.60
2023-02-11T15:03:35.965Z,7.07
2023-02-11T15:06:36.290Z,6.78
2023-02-11T15:09:28.087Z,7.60
2023-02-11T15:11:58.648Z,8.07
2023-02-11T15:14:33.277Z,6.15
2023-02-11T15:17:08.051Z,6.85
2023-02-11T15:19:48.554Z,8.52
2023-02-11T15:22:22.210Z,8.02
2023-02-11T15:25:20.143Z,7.57
2023-02-11T15:27:53.527Z,7.27
2023-02-11T15:30:25.056Z,8.90
2023-02-11T15:32:58.960Z,9.10
2023-02-11T15:35:41.279Z,8.60
2023-02-11T15:38:14.184Z,8.90
2023-02-11T15:40:51.132Z,10.00
2023-02-11T15:43:18.790Z,10.07
2023-02-11T15:45:52.171Z,8.77
2023-02-11T15:48:28.219Z,8.53
2023-02-11T15:51:23.139Z,17.67
2023-02-11T15:53:59.871Z,17.97
2023-02-11T15:56:42.193Z,19.43
2023-02-11T15:59:56.285Z,14.60
2023-02-11T16:02:34.029Z,17.60
2023-02-11T16:05:09.386Z,18.03
2023-02-11T16:07:50.788Z,17.73
2023-02-11T16:10:32.278Z,20.63
2023-02-11T16:13:08.766Z,24.43
2023-02-11T16:16:02.449Z,24.00
2023-02-11T16:19:03.349Z,25.60
2023-02-11T16:21:39.239Z,25.13
2023-02-11T16:24:22.249Z,23.40
2023-02-11T16:26:54.976Z,31.43
2023-02-11T16:29:33.198Z,33.20
2023-02-11T16:32:25.775Z,39.27
2023-02-11T16:34:58.555Z,69.00
2023-02-11T16:37:26.939Z,116.27
2023-02-11T16:40:01.183Z,119.80
2023-02-11T16:42:30.243Z,115.13
2023-02-11T16:44:59.808Z,113.23
2023-02-11T16:47:31.257Z,110.20
2023-02-11T16:50:03.006Z,106.00
2023-02-11T16:52:31.788Z,123.50
2023-02-11T16:55:02.127Z,123.67
2023-02-11T16:57:31.316Z,116.27
2023-02-11T17:00:00.790Z,122.43
2023-02-11T17:02:35.552Z,124.67
2023-02-11T17:05:08.075Z,131.07
2023-02-11T17:07:38.598Z,142.43
2023-02-11T17:10:27.532Z,140.73
2023-02-11T17:12:56.310Z,142.23
2023-02-11T17:15:23.834Z,170.93
2023-02-11T17:17:59.587Z,179.00
2023-02-11T17:20:33.309Z,221.63
2023-02-11T17:23:01.438Z,230.97
2023-02-11T17:25:29.058Z,215.03
2023-02-11T17:27:56.738Z,219.90
2023-02-11T17:30:25.066Z,211.13
2023-02-11T17:32:52.680Z,234.03
2023-02-11T17:35:20.232Z,251.47
2023-02-11T17:37:47.741Z,252.60
2023-02-11T17:40:16.435Z,229.00
2023-02-11T17:42:45.096Z,235.60
2023-02-11T17:45:14.785Z,178.17
2023-02-11T17:47:43.811Z,143.50
2023-02-11T17:50:15.814Z,114.93
2023-02-11T17:52:43.727Z,88.67
2023-02-11T17:55:11.692Z,62.20
2023-02-11T17:57:42.226Z,59.33
2023-02-11T18:00:13.935Z,62.20
2023-02-11T18:02:41.343Z,58.33
2023-02-11T18:05:10.414Z,62.77
2023-02-11T18:07:38.978Z,60.07
2023-02-11T18:10:09.553Z,63.53
2023-02-11T18:12:37.270Z,61.63
2023-02-11T18:15:05.460Z,58.10
2023-02-11T18:17:34.705Z,66.47
2023-02-11T18:20:05.035Z,55.27
2023-02-11T18:22:39.379Z,51.40
2023-02-11T18:25:10.212Z,47.67
2023-02-11T18:27:38.050Z,43.87
2023-02-11T18:30:07.190Z,39.83
2023-02-11T18:32:36.640Z,36.83
2023-02-11T18:35:04.193Z,37.43
2023-02-11T18:37:34.470Z,38.37
2023-02-11T18:40:06.506Z,39.30
2023-02-11T18:42:35.634Z,45.63
2023-02-11T18:45:06.007Z,46.70
2023-02-11T18:47:41.793Z,44.90
2023-02-11T18:50:13.797Z,67.33
2023-02-11T18:52:43.408Z,53.40
2023-02-11T18:55:11.750Z,37.27
2023-02-11T18:57:39.850Z,48.73
2023-02-11T19:00:10.159Z,97.27
2023-02-11T19:02:42.915Z,138.97
2023-02-11T19:05:11.418Z,191.70
2023-02-11T19:07:40.575Z,144.30
2023-02-11T19:10:09.238Z,141.03
2023-02-11T19:12:39.200Z,144.07
2023-02-11T19:15:11.026Z,112.17
2023-02-11T19:17:44.114Z,120.50
2023-02-11T19:20:13.413Z,51.80
2023-02-11T19:22:41.596Z,87.13
2023-02-11T19:25:13.696Z,79.53
2023-02-11T19:27:41.958Z,46.27
2023-02-11T19:30:13.232Z,53.87
2023-02-11T19:32:44.106Z,55.53
2023-02-11T19:35:13.183Z,57.67
2023-02-11T19:37:42.716Z,61.33
2023-02-11T19:40:12.228Z,57.10
2023-02-11T19:42:41.444Z,60.50
2023-02-11T19:45:10.698Z,72.47
2023-02-11T19:47:39.568Z,50.03
2023-02-11T19:50:13.685Z,53.33
2023-02-11T19:52:41.790Z,56.70
2023-02-11T19:55:10.054Z,59.97
2023-02-11T19:57:37.492Z,53.20
2023-02-11T20:00:07.628Z,44.67
2023-02-11T20:02:40.695Z,38.00
2023-02-11T20:05:09.648Z,54.63
2023-02-11T20:07:38.505Z,49.27
2023-02-11T20:10:08.234Z,65.93
2023-02-11T20:12:37.681Z,85.97
2023-02-11T20:15:08.995Z,80.80
2023-02-11T20:17:37.093Z,56.40
2023-02-11T20:20:04.802Z,41.77
2023-02-11T20:22:55.077Z,44.00
2023-02-11T20:25:22.670Z,49.20
2023-02-11T20:27:54.501Z,41.70
2023-02-11T20:30:23.154Z,43.33
2023-02-11T20:32:50.849Z,82.60
2023-02-11T20:35:18.510Z,46.40
2023-02-11T20:37:49.087Z,46.73
2023-02-11T20:40:16.606Z,42.87
2023-02-11T20:42:45.868Z,28.57
2023-02-11T20:45:41.887Z,19.73
2023-02-11T20:48:10.240Z,19.60
2023-02-11T20:50:38.703Z,16.50
2023-02-11T20:53:11.466Z,18.10
2023-02-11T20:55:46.661Z,19.43
2023-02-11T20:58:16.260Z,17.97
2023-02-11T21:00:45.098Z,19.17
2023-02-11T21:03:13.898Z,19.63
2023-02-11T21:05:44.231Z,53.67
2023-02-11T21:08:11.691Z,32.57
2023-02-11T21:10:39.384Z,28.97
2023-02-11T21:13:06.841Z,26.60
2023-02-11T21:15:35.602Z,30.33
2023-02-11T21:18:03.148Z,43.57
2023-02-11T21:20:30.699Z,38.07
2023-02-11T21:23:01.089Z,37.60
2023-02-11T21:25:30.018Z,35.07
2023-02-11T21:28:00.182Z,34.20
2023-02-11T21:30:27.915Z,33.53
2023-02-11T21:32:55.581Z,28.63
2023-02-11T21:35:28.285Z,29.07
2023-02-11T21:37:55.905Z,26.77
2023-02-11T21:40:30.543Z,27.07
2023-02-11T21:43:00.633Z,29.90
2023-02-11T21:45:28.313Z,47.20
2023-02-11T21:47:55.813Z,49.97
2023-02-11T21:50:23.311Z,38.27
2023-02-11T21:52:51.052Z,40.20
2023-02-11T21:55:18.879Z,42.53
2023-02-11T21:57:46.367Z,69.53
2023-02-11T22:00:14.802Z,93.37
2023-02-11T22:02:43.900Z,69.93
2023-02-11T22:05:11.345Z,70.30
2023-02-11T22:07:39.843Z,71.67
2023-02-11T22:10:08.128Z,65.27
2023-02-11T22:12:35.760Z,66.60
2023-02-11T22:15:03.371Z,53.23
2023-02-11T22:17:30.846Z,52.47
2023-02-11T22:19:58.996Z,55.63
2023-02-11T22:22:26.925Z,54.90
2023-02-11T22:24:54.327Z,51.60
2023-02-11T22:27:22.762Z,61.27
2023-02-11T22:29:50.252Z,60.73
2023-02-11T22:32:17.907Z,56.13
2023-02-11T22:34:45.492Z,41.93
2023-02-11T22:37:13.074Z,34.60
2023-02-11T22:39:42.751Z,26.40
2023-02-11T22:42:10.259Z,28.90
2023-02-11T22:44:38.050Z,32.63
2023-02-11T22:47:06.178Z,31.67
2023-02-11T22:49:34.440Z,38.37
2023-02-11T22:52:01.914Z,38.17
2023-02-11T22:54:29.435Z,44.10
2023-02-11T22:56:56.787Z,48.90
2023-02-11T22:59:24.291Z,60.53
2023-02-11T23:01:51.766Z,86.37
2023-02-11T23:04:19.363Z,64.30
2023-02-11T23:06:50.395Z,110.50
2023-02-11T23:09:17.879Z,102.67
2023-02-11T23:11:45.386Z,67.67
2023-02-11T23:14:14.374Z,49.13
2023-02-11T23:16:42.005Z,44.00
2023-02-11T23:19:10.333Z,42.80
2023-02-11T23:21:40.044Z,34.03
2023-02-11T23:24:15.584Z,38.27
2023-02-11T23:26:44.155Z,38.13
2023-02-11T23:29:12.211Z,75.77
2023-02-11T23:31:43.479Z,92.50
2023-02-11T23:34:11.073Z,38.20
2023-02-11T23:36:38.704Z,51.67
2023-02-11T23:39:06.455Z,41.23
2023-02-11T23:41:33.924Z,40.13
2023-02-11T23:44:01.619Z,38.53
2023-02-11T23:46:31.411Z,36.87
2023-02-11T23:49:00.328Z,39.73
2023-02-11T23:51:27.863Z,32.80
2023-02-11T23:53:56.217Z,22.00
2023-02-11T23:56:27.150Z,20.17
2023-02-11T23:58:59.381Z,22.60
